createdAt,value
2022-08-05T00:01:36.168Z,100678.00
2022-08-05T00:04:18.062Z,100683.66
2022-08-05T00:06:51.635Z,100677.38
2022-08-05T00:09:20.438Z,100677.44
2022-08-05T00:11:55.773Z,100675.50
2022-08-05T00:14:27.689Z,100667.31
2022-08-05T00:16:57.967Z,100668.06
2022-08-05T00:19:40.620Z,100664.78
2022-08-05T00:22:12.427Z,100667.03
2022-08-05T00:24:42.154Z,100669.38
2022-08-05T00:27:16.581Z,100670.47
2022-08-05T00:29:45.686Z,100663.75
2022-08-05T00:32:15.436Z,100663.34
2022-08-05T00:35:04.416Z,100659.53
2022-08-05T00:37:50.670Z,100661.38
2022-08-05T00:40:27.526Z,100662.47
2022-08-05T00:43:00.252Z,100659.53
2022-08-05T00:45:42.988Z,100667.28
2022-08-05T00:48:27.523Z,100658.84
2022-08-05T00:50:59.829Z,100656.28
2022-08-05T00:54:01.402Z,100657.75
2022-08-05T00:56:25.470Z,100649.16
2022-08-05T00:58:53.702Z,100654.06
2022-08-05T01:01:24.963Z,100659.03
2022-08-05T01:04:13.565Z,100662.41
2022-08-05T01:06:43.885Z,100667.47
2022-08-05T01:09:17.394Z,100662.94
2022-08-05T01:11:52.062Z,100674.44
2022-08-05T01:14:36.586Z,100688.50
2022-08-05T01:17:28.995Z,100687.34
2022-08-05T01:20:25.006Z,100675.31
2022-08-05T01:23:22.898Z,100682.16
2022-08-05T01:26:27.364Z,100684.22
2022-08-05T01:29:05.583Z,100680.25
2022-08-05T01:31:49.855Z,100678.97
2022-08-05T01:34:36.531Z,100689.59
2022-08-05T01:37:24.657Z,100685.72
2022-08-05T01:39:58.941Z,100696.09
2022-08-05T01:42:30.049Z,100685.16
2022-08-05T01:45:02.306Z,100678.19
2022-08-05T01:47:39.434Z,100686.16
2022-08-05T01:50:15.979Z,100692.16
2022-08-05T01:52:49.881Z,100695.69
2022-08-05T01:55:23.822Z,100685.63
2022-08-05T01:58:11.543Z,100667.31
2022-08-05T02:00:52.142Z,100682.75
2022-08-05T02:03:39.882Z,100686.63
2022-08-05T02:06:33.360Z,100680.19
2022-08-05T02:08:59.374Z,100676.84
2022-08-05T02:11:48.104Z,100679.13
2022-08-05T02:14:53.432Z,100673.34
2022-08-05T02:18:32.358Z,100673.09
2022-08-05T02:20:31.847Z,100667.09
2022-08-05T02:23:12.012Z,100664.16
2022-08-05T02:25:49.699Z,100658.78
2022-08-05T02:28:29.387Z,100659.38
2022-08-05T02:31:26.752Z,100669.38
2022-08-05T02:34:11.917Z,100660.00
2022-08-05T02:36:48.419Z,100655.94
2022-08-05T02:39:23.268Z,100656.91
2022-08-05T02:42:00.634Z,100658.44
2022-08-05T02:44:34.497Z,100659.50
2022-08-05T02:47:08.993Z,100667.81
2022-08-05T02:49:42.375Z,100667.22
2022-08-05T02:52:29.713Z,100671.03
2022-08-05T02:55:05.653Z,100674.19
2022-08-05T02:58:10.545Z,100677.38
2022-08-05T03:00:30.660Z,100668.97
2022-08-05T03:03:02.277Z,100660.75
2022-08-05T03:06:56.885Z,100654.28
2022-08-05T03:08:29.644Z,100661.69
2022-08-05T03:11:53.698Z,100660.16
2022-08-05T03:13:52.112Z,100659.56
2022-08-05T03:16:31.788Z,100665.00
2022-08-05T03:19:01.475Z,100662.00
2022-08-05T03:21:48.437Z,100666.44
2022-08-05T03:24:29.481Z,100664.06
2022-08-05T03:27:01.675Z,100665.16
2022-08-05T03:29:45.919Z,100658.31
2022-08-05T03:32:19.938Z,100660.13
2022-08-05T03:34:51.266Z,100658.50
2022-08-05T03:37:21.408Z,100655.34
2022-08-05T03:40:01.933Z,100661.28
2022-08-05T03:42:41.594Z,100661.78
2022-08-05T03:45:21.636Z,100665.31
2022-08-05T03:47:51.837Z,100650.63
2022-08-05T03:50:43.679Z,100652.31
2022-08-05T03:55:34.207Z,100661.38
2022-08-05T03:56:38.352Z,100648.69
2022-08-05T03:59:47.109Z,100658.69
2022-08-05T04:02:38.888Z,100664.31
2022-08-05T04:05:17.008Z,100664.69
2022-08-05T04:07:58.161Z,100673.56
2022-08-05T04:10:32.074Z,100675.41
2022-08-05T04:16:14.271Z,100675.69
2022-08-05T04:18:47.605Z,100679.59
2022-08-05T04:22:08.862Z,100676.22
2022-08-05T04:24:19.442Z,100680.59
2022-08-05T04:26:51.322Z,100670.53
2022-08-05T04:29:19.801Z,100667.38
2022-08-05T04:31:48.345Z,100673.31
2022-08-05T04:34:31.369Z,100663.88
2022-08-05T04:37:03.993Z,100662.47
2022-08-05T04:39:35.260Z,100646.00
2022-08-05T04:42:04.385Z,100647.78
2022-08-05T04:44:32.630Z,100652.13
2022-08-05T04:47:09.138Z,100661.50
2022-08-05T04:50:02.468Z,100664.88
2022-08-05T04:52:33.405Z,100689.28
2022-08-05T04:55:13.951Z,100695.19
2022-08-05T04:57:47.750Z,100710.38
2022-08-05T05:00:16.751Z,100708.72
2022-08-05T05:02:45.128Z,100707.13
2022-08-05T05:05:16.946Z,100707.25
2022-08-05T05:08:01.720Z,100708.56
2022-08-05T05:10:33.228Z,100701.69
2022-08-05T05:13:04.113Z,100692.38
2022-08-05T05:15:56.891Z,100690.56
2022-08-05T05:18:31.384Z,100695.25
2022-08-05T05:21:03.940Z,100695.16
2022-08-05T05:23:39.537Z,100697.22
2022-08-05T05:26:28.665Z,100702.50
2022-08-05T05:29:02.358Z,100696.09
2022-08-05T05:34:02.510Z,100707.88
2022-08-05T05:36:31.950Z,100701.66
2022-08-05T05:39:00.395Z,100711.34
2022-08-05T05:41:40.459Z,100716.72
2022-08-05T05:44:36.105Z,100731.22
2022-08-05T05:47:04.430Z,100736.56
2022-08-05T05:49:41.619Z,100751.69
2022-08-05T05:52:12.103Z,100755.44
2022-08-05T05:54:54.751Z,100753.00
2022-08-05T05:57:23.012Z,100750.44
2022-08-05T05:59:51.279Z,100738.38
2022-08-05T06:02:32.318Z,100737.75
2022-08-05T06:05:16.439Z,100749.25
2022-08-05T06:08:01.272Z,100763.06
2022-08-05T06:10:34.516Z,100782.69
2022-08-05T06:13:05.399Z,100809.28
2022-08-05T06:16:28.396Z,100812.44
2022-08-05T06:18:31.159Z,100805.41
2022-08-05T06:21:00.627Z,100796.97
2022-08-05T06:23:32.090Z,100816.38
2022-08-05T06:26:20.834Z,100826.34
2022-08-05T06:28:49.998Z,100829.56
2022-08-05T06:31:21.713Z,100835.84
2022-08-05T06:34:07.569Z,100841.28
2022-08-05T06:36:56.882Z,100843.50
2022-08-05T06:39:27.102Z,100827.88
2022-08-05T06:42:04.041Z,100821.47
2022-08-05T06:44:32.893Z,100828.09
2022-08-05T06:47:02.403Z,100826.09
2022-08-05T06:50:01.899Z,100822.31
2022-08-05T06:52:37.982Z,100823.19
2022-08-05T06:55:08.574Z,100818.16
2022-08-05T06:57:57.738Z,100812.63
2022-08-05T07:00:25.506Z,100827.34
2022-08-05T07:02:54.321Z,100815.91
2022-08-05T07:05:36.844Z,100820.81
2022-08-05T07:08:10.944Z,100815.34
2022-08-05T07:10:52.379Z,100807.94
2022-08-05T07:13:58.014Z,100815.00
2022-08-05T07:18:00.997Z,100836.53
2022-08-05T07:22:28.832Z,100832.03
2022-08-05T07:25:09.441Z,100838.13
2022-08-05T07:27:58.271Z,100844.38
2022-08-05T07:30:38.945Z,100855.22
2022-08-05T07:33:16.607Z,100869.31
2022-08-05T07:36:03.388Z,100873.16
2022-08-05T07:38:42.875Z,100855.47
2022-08-05T07:42:07.780Z,100857.34
2022-08-05T07:44:14.149Z,100859.06
2022-08-05T07:46:49.803Z,100855.06
2022-08-05T07:49:20.523Z,100857.25
2022-08-05T07:51:54.243Z,100856.25
2022-08-05T07:54:31.486Z,100855.03
2022-08-05T07:57:18.113Z,100853.91
2022-08-05T07:59:51.923Z,100851.19
2022-08-05T08:02:30.822Z,100845.47
2022-08-05T08:05:17.488Z,100841.91
2022-08-05T08:07:59.167Z,100839.56
2022-08-05T08:10:30.252Z,100843.94
2022-08-05T08:12:58.867Z,100848.28
2022-08-05T08:15:37.366Z,100840.63
2022-08-05T08:18:15.653Z,100838.13
2022-08-05T08:21:02.225Z,100853.91
2022-08-05T08:24:02.637Z,100848.19
2022-08-05T08:26:26.840Z,100838.63
2022-08-05T08:29:21.597Z,100837.19
2022-08-05T08:31:50.773Z,100831.63
2022-08-05T08:34:30.221Z,100827.75
2022-08-05T08:37:04.866Z,100845.47
2022-08-05T08:39:37.549Z,100844.72
2022-08-05T08:42:33.980Z,100868.72
2022-08-05T08:45:20.620Z,100876.19
2022-08-05T08:48:10.547Z,100883.03
2022-08-05T08:51:03.650Z,100880.06
2022-08-05T08:53:45.262Z,100875.66
2022-08-05T08:56:13.878Z,100877.69
2022-08-05T08:58:44.704Z,100890.97
2022-08-05T09:01:18.767Z,100894.19
2022-08-05T09:03:54.530Z,100882.34
2022-08-05T09:06:30.384Z,100877.81
2022-08-05T09:09:01.889Z,100849.38
2022-08-05T09:11:52.686Z,100864.13
2022-08-05T09:14:56.727Z,100884.25
2022-08-05T09:17:40.199Z,100899.19
2022-08-05T09:20:05.923Z,100914.78
2022-08-05T09:23:19.072Z,100919.75
2022-08-05T09:26:02.278Z,100923.53
2022-08-05T09:28:35.185Z,100924.50
2022-08-05T09:31:22.068Z,100923.88
2022-08-05T09:34:01.609Z,100932.19
2022-08-05T09:36:56.185Z,100940.91
2022-08-05T09:39:41.785Z,100949.38
2022-08-05T09:42:24.131Z,100963.34
2022-08-05T09:45:17.222Z,100967.03
2022-08-05T09:47:55.640Z,100963.66
2022-08-05T09:50:43.769Z,100961.75
2022-08-05T09:53:23.113Z,100962.34
2022-08-05T09:56:04.583Z,100947.16
2022-08-05T09:58:33.292Z,100935.91
2022-08-05T10:01:14.750Z,100931.78
2022-08-05T10:04:10.680Z,100915.69
2022-08-05T10:06:49.778Z,100900.56
2022-08-05T10:09:29.495Z,100915.09
2022-08-05T10:12:18.554Z,100901.78
2022-08-05T10:15:25.971Z,100870.09
2022-08-05T10:18:19.880Z,100890.38
2022-08-05T10:21:16.424Z,100891.53
2022-08-05T10:23:59.543Z,100878.00
2022-08-05T10:26:31.715Z,100867.16
2022-08-05T10:29:02.740Z,100878.31
2022-08-05T10:32:52.513Z,100908.66
2022-08-05T10:34:25.599Z,100919.69
2022-08-05T10:36:58.997Z,100908.94
2022-08-05T10:40:04.134Z,100940.16
2022-08-05T10:42:33.557Z,100945.59
2022-08-05T10:45:21.270Z,100935.88
2022-08-05T10:48:29.731Z,100921.66
2022-08-05T10:51:05.777Z,100928.09
2022-08-05T10:53:50.615Z,100909.22
2022-08-05T10:56:26.077Z,100930.91
2022-08-05T10:58:54.614Z,100950.41
2022-08-05T11:01:54.560Z,100945.56
2022-08-05T11:04:27.629Z,100946.63
2022-08-05T11:07:04.454Z,100912.84
2022-08-05T11:09:47.218Z,100871.81
2022-08-05T11:12:24.860Z,100888.00
2022-08-05T11:16:01.332Z,100887.72
2022-08-05T11:18:34.097Z,100888.59
2022-08-05T11:21:11.769Z,100896.47
2022-08-05T11:24:04.559Z,100920.84
2022-08-05T11:26:35.100Z,100928.03
2022-08-05T11:29:13.045Z,100932.56
2022-08-05T11:31:58.123Z,100935.50
2022-08-05T11:34:50.900Z,100945.31
2022-08-05T11:38:31.027Z,100957.69
2022-08-05T11:41:35.104Z,100947.59
2022-08-05T11:44:06.293Z,100948.91
2022-08-05T11:47:09.345Z,100952.22
2022-08-05T11:49:42.818Z,100958.25
2022-08-05T11:52:12.170Z,100953.91
2022-08-05T11:54:43.448Z,100950.06
2022-08-05T11:57:25.989Z,100935.03
2022-08-05T11:59:55.936Z,100944.88
2022-08-05T12:02:32.934Z,100945.94
2022-08-05T12:05:07.146Z,100953.84
2022-08-05T12:08:08.779Z,100950.94
2022-08-05T12:10:42.883Z,100947.94
2022-08-05T12:13:28.091Z,100945.09
2022-08-05T12:16:14.615Z,100941.00
2022-08-05T12:18:49.086Z,100947.31
2022-08-05T12:21:50.007Z,100946.97
2022-08-05T12:24:22.471Z,100958.72
2022-08-05T12:26:54.286Z,100961.06
2022-08-05T12:29:25.957Z,100960.03
2022-08-05T12:32:01.810Z,100961.56
2022-08-05T12:34:35.808Z,100956.88
2022-08-05T12:37:17.242Z,100942.59
2022-08-05T12:39:53.990Z,100938.41
2022-08-05T12:42:25.356Z,100936.75
2022-08-05T12:45:09.469Z,100941.00
2022-08-05T12:48:01.050Z,100942.84
2022-08-05T12:50:27.819Z,100947.53
2022-08-05T12:53:02.423Z,100950.91
2022-08-05T12:55:32.935Z,100948.09
2022-08-05T12:58:51.349Z,100947.94
2022-08-05T13:02:02.672Z,100950.09
2022-08-05T13:03:42.289Z,100946.28
2022-08-05T13:06:19.850Z,100954.22
2022-08-05T13:08:51.597Z,100947.47
2022-08-05T13:11:57.884Z,100950.94
2022-08-05T13:14:19.991Z,100939.97
2022-08-05T13:16:56.846Z,100949.44
2022-08-05T13:19:51.124Z,100938.97
2022-08-05T13:22:27.992Z,100935.56
2022-08-05T13:25:18.888Z,100938.19
2022-08-05T13:27:54.195Z,100930.84
2022-08-05T13:30:35.221Z,100935.25
2022-08-05T13:33:07.596Z,100930.53
2022-08-05T13:35:50.438Z,100933.59
2022-08-05T13:38:31.129Z,100921.72
2022-08-05T13:41:06.523Z,100924.84
2022-08-05T13:43:45.722Z,100928.25
2022-08-05T13:46:50.655Z,100930.34
2022-08-05T13:49:12.862Z,100928.88
2022-08-05T13:51:46.120Z,100930.56
2022-08-05T13:54:21.261Z,100926.22
2022-08-05T13:56:53.963Z,100936.66
2022-08-05T13:59:27.545Z,100942.66
2022-08-05T14:02:00.943Z,100936.34
2022-08-05T14:04:55.885Z,100952.66
2022-08-05T14:08:00.952Z,100941.13
2022-08-05T14:10:37.351Z,100932.28
2022-08-05T14:13:07.826Z,100934.56
2022-08-05T14:16:08.237Z,100940.81
2022-08-05T14:18:24.518Z,100942.97
2022-08-05T14:20:54.725Z,100957.22
2022-08-05T14:23:26.285Z,100938.31
2022-08-05T14:25:57.956Z,100937.78
2022-08-05T14:28:31.059Z,100943.31
2022-08-05T14:31:01.422Z,100940.94
2022-08-05T14:33:32.632Z,100949.94
2022-08-05T14:36:21.642Z,100951.69
2022-08-05T14:38:51.437Z,100952.94
2022-08-05T14:41:20.139Z,100955.00
2022-08-05T14:43:59.084Z,100964.84
2022-08-05T14:46:31.475Z,100966.78
2022-08-05T14:49:07.369Z,100969.34
2022-08-05T14:51:42.673Z,100950.91
2022-08-05T14:54:29.889Z,100967.72
2022-08-05T14:57:00.671Z,100960.22
2022-08-05T14:59:35.621Z,100967.41
2022-08-05T15:02:15.777Z,100969.38
2022-08-05T15:04:45.035Z,100970.00
2022-08-05T15:08:08.817Z,100964.03
2022-08-05T15:10:09.943Z,100961.19
2022-08-05T15:12:59.889Z,100956.25
2022-08-05T15:15:54.943Z,100955.34
2022-08-05T15:18:17.305Z,100966.09
2022-08-05T15:20:46.181Z,100963.84
2022-08-05T15:23:14.673Z,100957.19
2022-08-05T15:25:52.812Z,100959.00
2022-08-05T15:28:27.719Z,100959.22
2022-08-05T15:30:57.046Z,100949.22
2022-08-05T15:34:05.812Z,100952.00
2022-08-05T15:36:17.820Z,100958.72
2022-08-05T15:40:41.001Z,100967.72
2022-08-05T15:41:56.299Z,100966.28
2022-08-05T15:44:30.851Z,100975.09
2022-08-05T15:47:01.847Z,100983.03
2022-08-05T15:49:53.570Z,100977.66
2022-08-05T15:52:29.244Z,100981.09
2022-08-05T15:55:16.239Z,101002.31
2022-08-05T15:57:46.040Z,101003.19
2022-08-05T16:00:26.025Z,101000.47
2022-08-05T16:02:59.127Z,101004.19
2022-08-05T16:05:28.194Z,100999.31
2022-08-05T16:07:57.172Z,100993.38
2022-08-05T16:10:26.893Z,100990.16
2022-08-05T16:12:56.006Z,100998.25
2022-08-05T16:15:24.548Z,101013.19
2022-08-05T16:18:00.822Z,101017.13
2022-08-05T16:20:32.755Z,101013.19
2022-08-05T16:23:01.141Z,101020.06
2022-08-05T16:25:32.320Z,101017.53
2022-08-05T16:28:09.830Z,101028.56
2022-08-05T16:30:38.731Z,101043.31
2022-08-05T16:33:07.038Z,101041.06
2022-08-05T16:35:42.169Z,101058.53
2022-08-05T16:38:24.555Z,101066.72
2022-08-05T16:41:00.136Z,101067.69
2022-08-05T16:43:33.111Z,101085.16
2022-08-05T16:46:23.752Z,101087.78
2022-08-05T16:48:52.928Z,101098.53
2022-08-05T16:51:21.550Z,101095.28
2022-08-05T16:54:05.992Z,101073.09
2022-08-05T16:56:41.769Z,101079.91
2022-08-05T16:59:11.882Z,101071.31
2022-08-05T17:01:53.576Z,101080.69
2022-08-05T17:04:27.365Z,101091.44
2022-08-05T17:07:03.628Z,101094.88
2022-08-05T17:09:58.351Z,101099.63
2022-08-05T17:12:51.598Z,101098.50
2022-08-05T17:15:19.462Z,101119.09
2022-08-05T17:17:55.242Z,101124.38
2022-08-05T17:20:25.112Z,101124.84
2022-08-05T17:22:55.388Z,101124.97
2022-08-05T17:25:39.366Z,101137.53
2022-08-05T17:28:09.105Z,101152.69
2022-08-05T17:30:50.641Z,101151.50
2022-08-05T17:33:20.808Z,101166.41
2022-08-05T17:36:07.374Z,101177.88
2022-08-05T17:38:37.424Z,101182.00
2022-08-05T17:41:11.592Z,101198.72
2022-08-05T17:43:57.278Z,101193.16
2022-08-05T17:46:26.106Z,101186.38
2022-08-05T17:48:55.362Z,101202.63
2022-08-05T17:51:24.047Z,101199.09
2022-08-05T17:53:54.961Z,101202.66
2022-08-05T17:56:23.248Z,101214.13
2022-08-05T17:58:56.723Z,101231.94
2022-08-05T18:01:25.504Z,101244.13
2022-08-05T18:04:04.133Z,101234.75
2022-08-05T18:06:33.893Z,101244.50
2022-08-05T18:09:03.652Z,101255.41
2022-08-05T18:11:33.132Z,101282.09
2022-08-05T18:14:04.570Z,101279.31
2022-08-05T18:16:50.943Z,101277.00
2022-08-05T18:19:23.204Z,101260.81
2022-08-05T18:22:08.674Z,101267.22
2022-08-05T18:24:39.983Z,101279.31
2022-08-05T18:27:12.932Z,101280.31
2022-08-05T18:29:54.163Z,101285.75
2022-08-05T18:32:28.055Z,101288.03
2022-08-05T18:34:58.093Z,101288.69
2022-08-05T18:37:34.198Z,101308.66
2022-08-05T18:40:34.364Z,101298.19
2022-08-05T18:42:58.684Z,101301.81
2022-08-05T18:45:41.722Z,101300.84
2022-08-05T18:48:11.051Z,101309.31
2022-08-05T18:51:01.714Z,101306.84
2022-08-05T18:53:50.278Z,101323.47
2022-08-05T18:56:21.650Z,101312.81
2022-08-05T18:58:59.811Z,101329.75
2022-08-05T19:01:47.751Z,101336.91
2022-08-05T19:04:24.296Z,101324.25
2022-08-05T19:06:53.650Z,101329.06
2022-08-05T19:09:22.668Z,101334.47
2022-08-05T19:12:00.262Z,101338.81
2022-08-05T19:14:53.329Z,101347.91
2022-08-05T19:17:19.700Z,101341.28
2022-08-05T19:19:50.382Z,101337.50
2022-08-05T19:22:18.802Z,101357.81
2022-08-05T19:24:56.144Z,101368.66
2022-08-05T19:27:27.918Z,101381.66
2022-08-05T19:29:58.853Z,101391.72
2022-08-05T19:32:27.841Z,101394.91
2022-08-05T19:34:57.749Z,101389.22
2022-08-05T19:37:29.853Z,101382.13
2022-08-05T19:40:07.966Z,101385.22
2022-08-05T19:42:38.732Z,101399.16
2022-08-05T19:45:08.327Z,101395.75
2022-08-05T19:47:42.769Z,101408.28
2022-08-05T19:50:12.157Z,101408.38
2022-08-05T19:52:40.996Z,101417.03
2022-08-05T19:56:14.416Z,101415.03
2022-08-05T19:58:19.498Z,101418.84
2022-08-05T20:00:47.650Z,101423.06
2022-08-05T20:03:15.997Z,101427.00
2022-08-05T20:05:51.441Z,101419.28
2022-08-05T20:08:20.779Z,101417.25
2022-08-05T20:10:54.096Z,101416.06
2022-08-05T20:13:55.051Z,101426.09
2022-08-05T20:16:10.713Z,101425.28
2022-08-05T20:18:39.283Z,101426.00
2022-08-05T20:21:08.821Z,101430.78
2022-08-05T20:23:51.112Z,101437.22
2022-08-05T20:26:26.588Z,101433.59
2022-08-05T20:28:57.854Z,101448.47
2022-08-05T20:31:43.022Z,101444.28
2022-08-05T20:34:17.839Z,101444.72
2022-08-05T20:36:46.055Z,101471.00
2022-08-05T20:39:16.363Z,101477.66
2022-08-05T20:41:47.983Z,101476.00
2022-08-05T20:44:30.529Z,101485.91
2022-08-05T20:47:02.249Z,101493.94
2022-08-05T20:49:37.798Z,101496.78
2022-08-05T20:52:12.226Z,101504.50
2022-08-05T20:54:55.564Z,101513.06
2022-08-05T20:57:43.476Z,101515.59
2022-08-05T21:00:35.004Z,101523.16
2022-08-05T21:03:08.104Z,101527.16
2022-08-05T21:05:53.829Z,101537.06
2022-08-05T21:08:26.453Z,101542.06
2022-08-05T21:10:58.318Z,101549.25
2022-08-05T21:13:47.152Z,101553.28
2022-08-05T21:16:20.685Z,101546.34
2022-08-05T21:18:51.442Z,101542.91
2022-08-05T21:21:20.025Z,101551.03
2022-08-05T21:23:52.809Z,101557.38
2022-08-05T21:26:21.505Z,101548.44
2022-08-05T21:28:55.592Z,101544.00
2022-08-05T21:31:41.395Z,101539.41
2022-08-05T21:34:10.637Z,101545.75
2022-08-05T21:36:39.532Z,101545.38
2022-08-05T21:39:14.323Z,101546.56
2022-08-05T21:41:52.356Z,101556.72
2022-08-05T21:44:26.856Z,101561.53
2022-08-05T21:46:55.710Z,101568.84
2022-08-05T21:49:48.518Z,101572.09
2022-08-05T21:52:26.928Z,101562.63
2022-08-05T21:55:06.542Z,101562.78
2022-08-05T21:57:36.402Z,101571.84
2022-08-05T22:00:12.886Z,101579.47
2022-08-05T22:02:42.573Z,101576.78
2022-08-05T22:05:12.975Z,101575.19
2022-08-05T22:07:58.978Z,101566.81
2022-08-05T22:10:31.058Z,101577.47
2022-08-05T22:13:08.925Z,101571.56
2022-08-05T22:16:00.887Z,101571.31
2022-08-05T22:18:30.326Z,101584.88
2022-08-05T22:21:00.247Z,101584.31
2022-08-05T22:24:01.815Z,101597.78
2022-08-05T22:26:50.564Z,101605.53
2022-08-05T22:29:26.517Z,101600.72
2022-08-05T22:31:59.604Z,101599.16
2022-08-05T22:34:33.303Z,101609.53
2022-08-05T22:37:03.916Z,101608.72
2022-08-05T22:39:34.691Z,101616.13
2022-08-05T22:42:12.715Z,101615.41
2022-08-05T22:44:48.618Z,101616.41
2022-08-05T22:47:29.580Z,101615.97
2022-08-05T22:50:21.600Z,101609.72
2022-08-05T22:52:52.611Z,101616.69
2022-08-05T22:55:23.216Z,101613.34
2022-08-05T22:57:53.264Z,101619.06
2022-08-05T23:00:23.259Z,101607.59
2022-08-05T23:02:53.663Z,101617.28
2022-08-05T23:05:25.718Z,101623.28
2022-08-05T23:07:55.091Z,101625.31
2022-08-05T23:10:24.358Z,101624.59
2022-08-05T23:12:55.746Z,101616.13
2022-08-05T23:15:35.422Z,101615.69
2022-08-05T23:18:06.184Z,101622.16
2022-08-05T23:20:44.104Z,101625.56
2022-08-05T23:23:12.309Z,101622.34
2022-08-05T23:25:52.763Z,101626.88
2022-08-05T23:28:29.078Z,101615.84
2022-08-05T23:31:16.339Z,101625.63
2022-08-05T23:34:04.853Z,101642.63
2022-08-05T23:36:38.773Z,101651.13
2022-08-05T23:39:09.893Z,101647.47
2022-08-05T23:41:48.580Z,101653.25
2022-08-05T23:44:19.831Z,101668.13
2022-08-05T23:46:53.280Z,101653.78
2022-08-05T23:49:35.711Z,101652.44
2022-08-05T23:52:25.265Z,101644.22
2022-08-05T23:54:54.270Z,101647.16
2022-08-05T23:57:24.193Z,101662.44
